sensor_id;sensor_type;location;lat;lon;timestamp;P1;P2;P0
12246;PMS7003;6186;52.022;4.692;2022-11-20T00:02:25;14.00;13.00;5.00
12246;PMS7003;6186;52.022;4.692;2022-11-20T00:04:50;13.33;11.00;5.00
12246;PMS7003;6186;52.022;4.692;2022-11-20T00:07:15;14.67;13.00;7.00
12246;PMS7003;6186;52.022;4.692;2022-11-20T00:09:41;11.00;10.00;4.33
12246;PMS7003;6186;52.022;4.692;2022-11-20T00:12:06;13.00;11.33;6.33
12246;PMS7003;6186;52.022;4.692;2022-11-20T00:14:31;13.33;11.33;6.00
12246;PMS7003;6186;52.022;4.692;2022-11-20T00:16:56;14.33;10.67;5.33
12246;PMS7003;6186;52.022;4.692;2022-11-20T00:19:22;14.33;13.00;5.00
12246;PMS7003;6186;52.022;4.692;2022-11-20T00:21:47;11.33;10.00;4.67
12246;PMS7003;6186;52.022;4.692;2022-11-20T00:24:16;12.25;11.25;5.25
12246;PMS7003;6186;52.022;4.692;2022-11-20T00:26:41;12.33;12.33;7.00
12246;PMS7003;6186;52.022;4.692;2022-11-20T00:29:08;14.00;12.33;5.00
12246;PMS7003;6186;52.022;4.692;2022-11-20T00:31:35;14.50;14.25;7.00
12246;PMS7003;6186;52.022;4.692;2022-11-20T00:34:00;11.33;10.00;5.00
12246;PMS7003;6186;52.022;4.692;2022-11-20T00:36:26;14.00;11.00;7.00
12246;PMS7003;6186;52.022;4.692;2022-11-20T00:38:53;13.00;11.25;5.00
12246;PMS7003;6186;52.022;4.692;2022-11-20T00:41:21;10.75;10.00;5.25
12246;PMS7003;6186;52.022;4.692;2022-11-20T00:43:46;13.00;11.00;5.00
12246;PMS7003;6186;52.022;4.692;2022-11-20T00:46:13;14.00;10.33;5.00
12246;PMS7003;6186;52.022;4.692;2022-11-20T00:48:43;10.50;10.00;6.00
12246;PMS7003;6186;52.022;4.692;2022-11-20T00:51:09;13.00;12.50;6.50
12246;PMS7003;6186;52.022;4.692;2022-11-20T00:53:36;12.75;10.00;5.00
12246;PMS7003;6186;52.022;4.692;2022-11-20T00:56:02;16.00;13.00;5.00
12246;PMS7003;6186;52.022;4.692;2022-11-20T00:58:31;16.00;13.00;5.25
12246;PMS7003;6186;52.022;4.692;2022-11-20T01:01:05;13.25;12.50;6.25
12246;PMS7003;6186;52.022;4.692;2022-11-20T01:03:33;14.25;10.25;5.25
12246;PMS7003;6186;52.022;4.692;2022-11-20T01:06:03;13.25;12.00;5.00
12246;PMS7003;6186;52.022;4.692;2022-11-20T01:08:31;12.50;12.50;5.50
12246;PMS7003;6186;52.022;4.692;2022-11-20T01:10:59;13.50;12.50;5.25
12246;PMS7003;6186;52.022;4.692;2022-11-20T01:13:26;15.50;13.25;6.00
12246;PMS7003;6186;52.022;4.692;2022-11-20T01:18:41;12.25;12.25;6.50
12246;PMS7003;6186;52.022;4.692;2022-11-20T01:21:12;19.00;16.00;7.25
12246;PMS7003;6186;52.022;4.692;2022-11-20T01:23:39;14.75;12.75;5.50
12246;PMS7003;6186;52.022;4.692;2022-11-20T01:26:08;15.75;13.75;6.00
12246;PMS7003;6186;52.022;4.692;2022-11-20T01:28:35;11.75;9.50;4.50
12246;PMS7003;6186;52.022;4.692;2022-11-20T01:31:00;16.00;13.67;7.00
12246;PMS7003;6186;52.022;4.692;2022-11-20T01:33:26;15.75;13.75;7.00
12246;PMS7003;6186;52.022;4.692;2022-11-20T01:35:52;16.67;12.67;7.00
12246;PMS7003;6186;52.022;4.692;2022-11-20T01:38:18;13.00;12.00;6.00
12246;PMS7003;6186;52.022;4.692;2022-11-20T01:40:45;13.00;11.50;7.00
12246;PMS7003;6186;52.022;4.692;2022-11-20T01:43:18;13.25;12.00;7.00
12246;PMS7003;6186;52.022;4.692;2022-11-20T01:46:12;16.00;13.00;6.00
12246;PMS7003;6186;52.022;4.692;2022-11-20T01:48:51;11.75;10.25;6.25
12246;PMS7003;6186;52.022;4.692;2022-11-20T01:51:29;13.00;12.25;5.50
12246;PMS7003;6186;52.022;4.692;2022-11-20T01:54:10;14.00;11.00;4.75
12246;PMS7003;6186;52.022;4.692;2022-11-20T01:56:40;13.25;11.50;5.50
12246;PMS7003;6186;52.022;4.692;2022-11-20T01:59:09;14.50;12.50;5.50
12246;PMS7003;6186;52.022;4.692;2022-11-20T02:01:38;16.00;13.00;7.00
12246;PMS7003;6186;52.022;4.692;2022-11-20T02:04:04;14.00;10.67;5.00
12246;PMS7003;6186;52.022;4.692;2022-11-20T02:06:32;12.00;9.50;5.50
12246;PMS7003;6186;52.022;4.692;2022-11-20T02:09:03;11.50;10.75;5.25
12246;PMS7003;6186;52.022;4.692;2022-11-20T02:11:29;13.33;11.33;5.00
12246;PMS7003;6186;52.022;4.692;2022-11-20T02:13:55;13.50;12.00;7.00
12246;PMS7003;6186;52.022;4.692;2022-11-20T02:16:23;16.00;15.33;8.33
12246;PMS7003;6186;52.022;4.692;2022-11-20T02:18:50;14.50;14.00;7.25
12246;PMS7003;6186;52.022;4.692;2022-11-20T02:21:27;13.50;12.25;7.00
12246;PMS7003;6186;52.022;4.692;2022-11-20T02:27:17;11.25;11.00;7.00
12246;PMS7003;6186;52.022;4.692;2022-11-20T02:29:39;13.25;11.00;6.25
12246;PMS7003;6186;52.022;4.692;2022-11-20T02:32:28;15.25;12.50;4.75
12246;PMS7003;6186;52.022;4.692;2022-11-20T02:34:56;13.50;11.50;6.50
12246;PMS7003;6186;52.022;4.692;2022-11-20T02:37:22;12.67;10.67;5.33
12246;PMS7003;6186;52.022;4.692;2022-11-20T02:39:53;13.50;11.25;6.25
12246;PMS7003;6186;52.022;4.692;2022-11-20T02:42:18;13.67;13.67;6.00
12246;PMS7003;6186;52.022;4.692;2022-11-20T02:44:43;16.00;14.67;8.00
12246;PMS7003;6186;52.022;4.692;2022-11-20T02:47:09;15.67;13.00;5.33
12246;PMS7003;6186;52.022;4.692;2022-11-20T02:49:34;18.00;15.00;7.00
12246;PMS7003;6186;52.022;4.692;2022-11-20T02:52:00;16.00;13.33;8.33
12246;PMS7003;6186;52.022;4.692;2022-11-20T02:54:25;14.33;13.00;5.67
12246;PMS7003;6186;52.022;4.692;2022-11-20T02:56:51;18.00;16.67;6.00
12246;PMS7003;6186;52.022;4.692;2022-11-20T02:59:16;14.33;13.33;7.00
12246;PMS7003;6186;52.022;4.692;2022-11-20T03:01:42;14.33;12.33;6.67
12246;PMS7003;6186;52.022;4.692;2022-11-20T03:04:07;14.33;13.67;7.00
12246;PMS7003;6186;52.022;4.692;2022-11-20T03:06:32;15.00;13.33;7.00
12246;PMS7003;6186;52.022;4.692;2022-11-20T03:08:58;12.67;10.00;5.33
12246;PMS7003;6186;52.022;4.692;2022-11-20T03:11:23;10.00;10.00;5.33
12246;PMS7003;6186;52.022;4.692;2022-11-20T03:13:49;12.00;11.33;5.33
12246;PMS7003;6186;52.022;4.692;2022-11-20T03:16:15;16.00;14.00;6.67
12246;PMS7003;6186;52.022;4.692;2022-11-20T03:18:42;13.00;11.25;5.50
12246;PMS7003;6186;52.022;4.692;2022-11-20T03:21:08;11.33;11.00;7.00
12246;PMS7003;6186;52.022;4.692;2022-11-20T03:23:35;13.50;13.50;5.50
12246;PMS7003;6186;52.022;4.692;2022-11-20T03:28:37;20.50;16.00;7.25
12246;PMS7003;6186;52.022;4.692;2022-11-20T03:31:06;15.00;13.00;7.00
12246;PMS7003;6186;52.022;4.692;2022-11-20T03:33:37;18.50;14.00;8.75
12246;PMS7003;6186;52.022;4.692;2022-11-20T03:36:03;11.25;10.25;5.25
12246;PMS7003;6186;52.022;4.692;2022-11-20T03:38:30;18.00;15.00;7.00
12246;PMS7003;6186;52.022;4.692;2022-11-20T03:41:16;14.25;13.00;7.00
12246;PMS7003;6186;52.022;4.692;2022-11-20T03:43:49;13.50;11.50;5.50
12246;PMS7003;6186;52.022;4.692;2022-11-20T03:46:15;14.50;13.00;7.50
12246;PMS7003;6186;52.022;4.692;2022-11-20T03:48:41;16.00;13.00;7.50
12246;PMS7003;6186;52.022;4.692;2022-11-20T03:51:13;20.33;16.00;8.33
12246;PMS7003;6186;52.022;4.692;2022-11-20T03:53:41;20.50;16.00;6.50
12246;PMS7003;6186;52.022;4.692;2022-11-20T03:56:08;17.50;15.75;8.25
12246;PMS7003;6186;52.022;4.692;2022-11-20T03:58:34;12.25;12.25;5.50
12246;PMS7003;6186;52.022;4.692;2022-11-20T04:01:11;18.25;16.50;7.00
12246;PMS7003;6186;52.022;4.692;2022-11-20T04:03:38;14.75;13.50;8.00
12246;PMS7003;6186;52.022;4.692;2022-11-20T04:06:05;14.25;11.50;5.50
12246;PMS7003;6186;52.022;4.692;2022-11-20T04:08:33;15.50;14.50;6.25
12246;PMS7003;6186;52.022;4.692;2022-11-20T04:11:11;15.67;13.67;6.67
12246;PMS7003;6186;52.022;4.692;2022-11-20T04:13:38;15.50;12.50;6.50
12246;PMS7003;6186;52.022;4.692;2022-11-20T04:16:05;13.67;13.33;7.00
12246;PMS7003;6186;52.022;4.692;2022-11-20T04:18:31;19.00;14.00;7.00
12246;PMS7003;6186;52.022;4.692;2022-11-20T04:20:57;15.75;12.00;6.00
12246;PMS7003;6186;52.022;4.692;2022-11-20T04:23:24;16.00;13.00;7.00
12246;PMS7003;6186;52.022;4.692;2022-11-20T04:25:49;15.75;14.75;7.00
12246;PMS7003;6186;52.022;4.692;2022-11-20T04:28:14;13.33;11.33;5.33
12246;PMS7003;6186;52.022;4.692;2022-11-20T04:30:40;11.33;11.33;5.00
12246;PMS7003;6186;52.022;4.692;2022-11-20T04:33:05;15.00;13.00;7.33
12246;PMS7003;6186;52.022;4.692;2022-11-20T04:35:33;15.00;12.00;6.00
12246;PMS7003;6186;52.022;4.692;2022-11-20T04:37:59;11.00;10.50;6.50
12246;PMS7003;6186;52.022;4.692;2022-11-20T04:40:24;14.33;11.33;5.33
12246;PMS7003;6186;52.022;4.692;2022-11-20T04:42:49;14.67;14.00;7.00
12246;PMS7003;6186;52.022;4.692;2022-11-20T04:45:15;15.00;13.33;7.00
12246;PMS7003;6186;52.022;4.692;2022-11-20T04:47:40;17.33;14.00;8.33
12246;PMS7003;6186;52.022;4.692;2022-11-20T04:50:05;18.33;13.00;7.00
12246;PMS7003;6186;52.022;4.692;2022-11-20T04:52:32;15.75;13.25;7.25
12246;PMS7003;6186;52.022;4.692;2022-11-20T04:54:57;12.67;11.00;6.67
12246;PMS7003;6186;52.022;4.692;2022-11-20T04:57:23;16.00;15.00;9.33
12246;PMS7003;6186;52.022;4.692;2022-11-20T04:59:48;15.67;14.33;7.00
12246;PMS7003;6186;52.022;4.692;2022-11-20T05:02:13;18.00;15.00;8.33
12246;PMS7003;6186;52.022;4.692;2022-11-20T05:04:38;12.33;12.00;6.33
12246;PMS7003;6186;52.022;4.692;2022-11-20T05:07:04;13.00;12.33;6.33
12246;PMS7003;6186;52.022;4.692;2022-11-20T05:09:29;13.67;10.67;7.00
12246;PMS7003;6186;52.022;4.692;2022-11-20T05:11:55;12.67;12.67;6.00
12246;PMS7003;6186;52.022;4.692;2022-11-20T05:14:20;13.00;11.67;7.00
12246;PMS7003;6186;52.022;4.692;2022-11-20T05:16:45;14.33;13.00;7.33
12246;PMS7003;6186;52.022;4.692;2022-11-20T05:19:11;13.00;12.67;7.67
12246;PMS7003;6186;52.022;4.692;2022-11-20T05:21:36;14.67;12.67;6.00
12246;PMS7003;6186;52.022;4.692;2022-11-20T05:24:01;14.33;13.00;7.00
12246;PMS7003;6186;52.022;4.692;2022-11-20T05:26:27;17.00;14.33;7.67
12246;PMS7003;6186;52.022;4.692;2022-11-20T05:28:52;18.00;15.00;8.33
12246;PMS7003;6186;52.022;4.692;2022-11-20T05:31:19;18.00;16.00;9.00
12246;PMS7003;6186;52.022;4.692;2022-11-20T05:33:46;15.00;12.25;7.00
12246;PMS7003;6186;52.022;4.692;2022-11-20T05:36:12;16.00;14.00;7.00
12246;PMS7003;6186;52.022;4.692;2022-11-20T05:38:38;13.00;11.50;7.00
12246;PMS7003;6186;52.022;4.692;2022-11-20T05:43:34;15.50;13.50;8.50
12246;PMS7003;6186;52.022;4.692;2022-11-20T05:46:01;15.50;14.00;7.25
12246;PMS7003;6186;52.022;4.692;2022-11-20T05:48:27;16.75;14.50;8.25
12246;PMS7003;6186;52.022;4.692;2022-11-20T05:50:52;14.00;13.33;7.00
12246;PMS7003;6186;52.022;4.692;2022-11-20T05:53:17;15.33;13.00;7.67
12246;PMS7003;6186;52.022;4.692;2022-11-20T05:55:43;13.00;11.67;5.67
12246;PMS7003;6186;52.022;4.692;2022-11-20T05:58:08;11.33;11.33;5.33
12246;PMS7003;6186;52.022;4.692;2022-11-20T06:00:33;17.67;16.00;7.33
12246;PMS7003;6186;52.022;4.692;2022-11-20T06:02:59;17.67;12.67;6.67
12246;PMS7003;6186;52.022;4.692;2022-11-20T06:05:24;15.67;15.00;8.33
12246;PMS7003;6186;52.022;4.692;2022-11-20T06:07:49;18.00;14.33;7.00
12246;PMS7003;6186;52.022;4.692;2022-11-20T06:10:14;15.67;13.67;7.67
12246;PMS7003;6186;52.022;4.692;2022-11-20T06:12:40;16.00;12.67;6.33
12246;PMS7003;6186;52.022;4.692;2022-11-20T06:15:05;19.33;14.00;7.00
12246;PMS7003;6186;52.022;4.692;2022-11-20T06:17:31;12.75;12.00;7.00
12246;PMS7003;6186;52.022;4.692;2022-11-20T06:19:56;15.67;15.00;7.67
12246;PMS7003;6186;52.022;4.692;2022-11-20T06:22:22;15.67;13.00;7.00
12246;PMS7003;6186;52.022;4.692;2022-11-20T06:24:47;14.00;13.67;6.67
12246;PMS7003;6186;52.022;4.692;2022-11-20T06:27:13;14.00;14.00;7.00
12246;PMS7003;6186;52.022;4.692;2022-11-20T06:29:38;17.33;13.00;7.00
12246;PMS7003;6186;52.022;4.692;2022-11-20T06:32:03;15.33;14.33;7.00
12246;PMS7003;6186;52.022;4.692;2022-11-20T06:34:29;14.67;13.00;7.00
12246;PMS7003;6186;52.022;4.692;2022-11-20T06:36:54;14.33;13.67;6.67
12246;PMS7003;6186;52.022;4.692;2022-11-20T06:39:19;17.33;14.00;7.00
12246;PMS7003;6186;52.022;4.692;2022-11-20T06:41:45;14.33;13.00;7.00
12246;PMS7003;6186;52.022;4.692;2022-11-20T06:44:10;14.33;13.67;7.00
12246;PMS7003;6186;52.022;4.692;2022-11-20T06:46:35;18.00;14.33;7.67
12246;PMS7003;6186;52.022;4.692;2022-11-20T06:49:01;15.33;14.33;7.33
12246;PMS7003;6186;52.022;4.692;2022-11-20T06:51:26;16.00;14.33;7.00
12246;PMS7003;6186;52.022;4.692;2022-11-20T06:53:51;14.33;13.33;8.00
12246;PMS7003;6186;52.022;4.692;2022-11-20T06:56:16;17.33;14.33;7.33
12246;PMS7003;6186;52.022;4.692;2022-11-20T06:58:42;18.67;14.33;8.00
12246;PMS7003;6186;52.022;4.692;2022-11-20T07:01:11;13.00;10.67;6.00
12246;PMS7003;6186;52.022;4.692;2022-11-20T07:03:38;17.75;14.25;7.00
12246;PMS7003;6186;52.022;4.692;2022-11-20T07:06:04;12.75;11.75;7.00
12246;PMS7003;6186;52.022;4.692;2022-11-20T07:08:31;13.75;13.50;7.00
12246;PMS7003;6186;52.022;4.692;2022-11-20T07:10:57;15.50;13.75;6.75
12246;PMS7003;6186;52.022;4.692;2022-11-20T07:13:27;16.00;14.75;8.00
12246;PMS7003;6186;52.022;4.692;2022-11-20T07:15:53;18.67;13.33;7.33
12246;PMS7003;6186;52.022;4.692;2022-11-20T07:18:19;16.75;15.25;7.50
12246;PMS7003;6186;52.022;4.692;2022-11-20T07:20:44;14.67;12.33;6.00
12246;PMS7003;6186;52.022;4.692;2022-11-20T07:23:09;19.00;16.67;7.00
12246;PMS7003;6186;52.022;4.692;2022-11-20T07:25:35;16.00;13.67;7.67
12246;PMS7003;6186;52.022;4.692;2022-11-20T07:28:00;17.33;13.33;7.00
12246;PMS7003;6186;52.022;4.692;2022-11-20T07:30:27;19.33;15.33;7.00
12246;PMS7003;6186;52.022;4.692;2022-11-20T07:32:53;19.50;15.00;8.25
12246;PMS7003;6186;52.022;4.692;2022-11-20T07:35:19;21.00;14.50;7.50
12246;PMS7003;6186;52.022;4.692;2022-11-20T07:37:45;16.00;16.00;7.75
12246;PMS7003;6186;52.022;4.692;2022-11-20T07:40:11;19.33;16.00;8.33
12246;PMS7003;6186;52.022;4.692;2022-11-20T07:42:37;18.50;16.25;9.25
12246;PMS7003;6186;52.022;4.692;2022-11-20T07:45:02;14.67;14.00;8.00
12246;PMS7003;6186;52.022;4.692;2022-11-20T07:47:28;15.33;15.33;7.33
12246;PMS7003;6186;52.022;4.692;2022-11-20T07:49:53;18.00;18.00;10.00
12246;PMS7003;6186;52.022;4.692;2022-11-20T07:52:19;17.00;16.00;9.00
12246;PMS7003;6186;52.022;4.692;2022-11-20T07:54:44;20.67;14.00;7.00
12246;PMS7003;6186;52.022;4.692;2022-11-20T07:57:09;22.00;17.00;10.00
12246;PMS7003;6186;52.022;4.692;2022-11-20T07:59:35;21.50;16.50;10.00
12246;PMS7003;6186;52.022;4.692;2022-11-20T08:02:00;12.67;12.33;7.00
12246;PMS7003;6186;52.022;4.692;2022-11-20T08:04:26;22.00;17.33;10.00
12246;PMS7003;6186;52.022;4.692;2022-11-20T08:06:54;19.33;15.67;8.00
12246;PMS7003;6186;52.022;4.692;2022-11-20T08:09:19;22.00;18.75;10.00
12246;PMS7003;6186;52.022;4.692;2022-11-20T08:11:44;19.00;16.33;10.00
12246;PMS7003;6186;52.022;4.692;2022-11-20T08:14:28;20.75;19.50;9.50
12246;PMS7003;6186;52.022;4.692;2022-11-20T08:16:54;19.67;16.67;9.00
12246;PMS7003;6186;52.022;4.692;2022-11-20T08:19:19;19.33;16.67;10.00
12246;PMS7003;6186;52.022;4.692;2022-11-20T08:21:44;16.33;16.00;7.67
12246;PMS7003;6186;52.022;4.692;2022-11-20T08:24:10;18.25;13.25;8.50
12246;PMS7003;6186;52.022;4.692;2022-11-20T08:26:37;17.00;16.00;10.00
12246;PMS7003;6186;52.022;4.692;2022-11-20T08:29:04;19.00;17.25;10.00
12246;PMS7003;6186;52.022;4.692;2022-11-20T08:31:30;20.50;17.75;10.50
12246;PMS7003;6186;52.022;4.692;2022-11-20T08:33:56;15.25;14.00;7.50
12246;PMS7003;6186;52.022;4.692;2022-11-20T08:36:21;20.67;19.33;12.00
12246;PMS7003;6186;52.022;4.692;2022-11-20T08:38:48;20.75;18.50;10.00
12246;PMS7003;6186;52.022;4.692;2022-11-20T08:41:14;24.50;21.25;13.00
12246;PMS7003;6186;52.022;4.692;2022-11-20T08:43:50;21.50;19.50;11.00
12246;PMS7003;6186;52.022;4.692;2022-11-20T08:46:17;18.75;17.00;8.25
12246;PMS7003;6186;52.022;4.692;2022-11-20T08:48:43;17.67;16.67;8.00
12246;PMS7003;6186;52.022;4.692;2022-11-20T08:51:09;19.00;18.00;11.00
12246;PMS7003;6186;52.022;4.692;2022-11-20T08:53:35;20.00;18.25;10.75
12246;PMS7003;6186;52.022;4.692;2022-11-20T08:56:01;17.33;16.00;10.33
12246;PMS7003;6186;52.022;4.692;2022-11-20T08:58:26;20.00;17.33;8.67
12246;PMS7003;6186;52.022;4.692;2022-11-20T09:00:52;19.33;18.00;10.00
12246;PMS7003;6186;52.022;4.692;2022-11-20T09:03:17;17.50;17.00;10.00
12246;PMS7003;6186;52.022;4.692;2022-11-20T09:05:43;20.33;19.67;10.00
12246;PMS7003;6186;52.022;4.692;2022-11-20T09:08:08;22.33;17.67;10.67
12246;PMS7003;6186;52.022;4.692;2022-11-20T09:10:34;21.00;20.00;11.67
12246;PMS7003;6186;52.022;4.692;2022-11-20T09:12:59;22.33;19.33;11.00
12246;PMS7003;6186;52.022;4.692;2022-11-20T09:15:25;20.67;18.00;10.67
12246;PMS7003;6186;52.022;4.692;2022-11-20T09:17:54;27.00;22.50;14.00
12246;PMS7003;6186;52.022;4.692;2022-11-20T09:20:21;25.75;22.25;12.25
12246;PMS7003;6186;52.022;4.692;2022-11-20T09:22:47;21.67;20.33;11.33
12246;PMS7003;6186;52.022;4.692;2022-11-20T09:25:12;22.33;19.33;10.67
12246;PMS7003;6186;52.022;4.692;2022-11-20T09:27:38;27.67;22.33;14.00
12246;PMS7003;6186;52.022;4.692;2022-11-20T09:30:03;24.67;20.33;12.33
12246;PMS7003;6186;52.022;4.692;2022-11-20T09:32:29;24.25;21.75;14.00
12246;PMS7003;6186;52.022;4.692;2022-11-20T09:34:55;22.33;20.33;12.00
12246;PMS7003;6186;52.022;4.692;2022-11-20T09:37:20;21.33;19.67;10.00
12246;PMS7003;6186;52.022;4.692;2022-11-20T09:39:46;17.67;17.33;8.67
12246;PMS7003;6186;52.022;4.692;2022-11-20T09:45:04;22.00;19.75;11.50
12246;PMS7003;6186;52.022;4.692;2022-11-20T09:50:18;27.00;23.00;12.25
12246;PMS7003;6186;52.022;4.692;2022-11-20T09:56:00;21.75;20.50;12.25
12246;PMS7003;6186;52.022;4.692;2022-11-20T09:58:35;24.00;20.00;14.00
12246;PMS7003;6186;52.022;4.692;2022-11-20T10:01:14;25.50;21.00;11.25
12246;PMS7003;6186;52.022;4.692;2022-11-20T10:06:24;25.25;18.50;11.00
12246;PMS7003;6186;52.022;4.692;2022-11-20T10:08:59;23.25;20.75;12.00
12246;PMS7003;6186;52.022;4.692;2022-11-20T10:14:38;22.25;19.75;11.50
12246;PMS7003;6186;52.022;4.692;2022-11-20T10:17:46;21.50;19.00;11.50
12246;PMS7003;6186;52.022;4.692;2022-11-20T10:20:46;23.75;19.50;11.50
12246;PMS7003;6186;52.022;4.692;2022-11-20T10:29:10;26.75;21.75;13.50
12246;PMS7003;6186;52.022;4.692;2022-11-20T10:31:41;26.75;21.25;14.50
12246;PMS7003;6186;52.022;4.692;2022-11-20T10:37:09;25.00;22.00;12.25
12246;PMS7003;6186;52.022;4.692;2022-11-20T10:42:37;21.50;20.00;11.00
12246;PMS7003;6186;52.022;4.692;2022-11-20T10:47:48;27.00;24.00;12.00
12246;PMS7003;6186;52.022;4.692;2022-11-20T10:50:16;27.67;24.33;14.33
12246;PMS7003;6186;52.022;4.692;2022-11-20T10:55:28;23.50;19.00;12.00
12246;PMS7003;6186;52.022;4.692;2022-11-20T11:00:37;24.50;20.25;11.00
12246;PMS7003;6186;52.022;4.692;2022-11-20T11:03:02;27.67;22.67;12.67
12246;PMS7003;6186;52.022;4.692;2022-11-20T11:05:42;29.25;22.00;12.25
12246;PMS7003;6186;52.022;4.692;2022-11-20T11:08:19;23.00;22.75;13.50
12246;PMS7003;6186;52.022;4.692;2022-11-20T11:10:48;24.75;24.00;14.00
12246;PMS7003;6186;52.022;4.692;2022-11-20T11:15:47;28.50;24.00;14.00
12246;PMS7003;6186;52.022;4.692;2022-11-20T11:18:22;26.00;22.67;12.33
12246;PMS7003;6186;52.022;4.692;2022-11-20T11:20:52;30.75;25.00;16.00
12246;PMS7003;6186;52.022;4.692;2022-11-20T11:23:36;23.50;21.75;12.50
12246;PMS7003;6186;52.022;4.692;2022-11-20T11:26:03;22.50;19.75;11.75
12246;PMS7003;6186;52.022;4.692;2022-11-20T11:28:30;24.25;23.75;14.50
12246;PMS7003;6186;52.022;4.692;2022-11-20T11:30:56;20.00;17.50;11.75
12246;PMS7003;6186;52.022;4.692;2022-11-20T11:33:26;28.00;26.00;14.00
12246;PMS7003;6186;52.022;4.692;2022-11-20T11:36:02;22.50;20.75;13.50
12246;PMS7003;6186;52.022;4.692;2022-11-20T11:38:41;23.75;21.75;13.00
12246;PMS7003;6186;52.022;4.692;2022-11-20T11:41:09;25.50;22.00;12.25
12246;PMS7003;6186;52.022;4.692;2022-11-20T11:43:40;27.00;24.00;13.75
12246;PMS7003;6186;52.022;4.692;2022-11-20T11:46:38;27.50;25.75;13.75
12246;PMS7003;6186;52.022;4.692;2022-11-20T11:51:57;24.00;23.33;13.33
12246;PMS7003;6186;52.022;4.692;2022-11-20T11:54:37;27.25;22.25;13.25
12246;PMS7003;6186;52.022;4.692;2022-11-20T11:57:07;33.25;29.00;16.00
12246;PMS7003;6186;52.022;4.692;2022-11-20T12:02:15;31.75;25.00;14.25
12246;PMS7003;6186;52.022;4.692;2022-11-20T12:07:52;36.50;29.50;15.50
12246;PMS7003;6186;52.022;4.692;2022-11-20T12:10:28;29.00;28.50;15.75
12246;PMS7003;6186;52.022;4.692;2022-11-20T12:13:17;29.75;25.25;13.75
12246;PMS7003;6186;52.022;4.692;2022-11-20T12:15:54;25.25;23.25;13.00
12246;PMS7003;6186;52.022;4.692;2022-11-20T12:18:20;25.00;23.33;13.00
12246;PMS7003;6186;52.022;4.692;2022-11-20T12:20:56;30.50;27.00;15.00
12246;PMS7003;6186;52.022;4.692;2022-11-20T12:23:44;31.00;27.50;15.00
12246;PMS7003;6186;52.022;4.692;2022-11-20T12:26:19;31.25;26.75;16.00
12246;PMS7003;6186;52.022;4.692;2022-11-20T12:31:42;27.50;26.25;16.00
12246;PMS7003;6186;52.022;4.692;2022-11-20T12:53:04;28.75;25.75;15.00
12246;PMS7003;6186;52.022;4.692;2022-11-20T13:00:59;28.75;25.00;16.00
12246;PMS7003;6186;52.022;4.692;2022-11-20T13:03:44;31.50;27.00;16.00
12246;PMS7003;6186;52.022;4.692;2022-11-20T13:06:19;33.25;29.75;17.50
12246;PMS7003;6186;52.022;4.692;2022-11-20T13:08:54;25.00;23.50;13.25
12246;PMS7003;6186;52.022;4.692;2022-11-20T13:11:25;24.50;23.00;14.00
12246;PMS7003;6186;52.022;4.692;2022-11-20T13:14:20;25.25;23.00;15.00
12246;PMS7003;6186;52.022;4.692;2022-11-20T13:19:36;28.00;23.50;13.00
12246;PMS7003;6186;52.022;4.692;2022-11-20T13:22:02;29.33;26.67;13.67
12246;PMS7003;6186;52.022;4.692;2022-11-20T13:24:28;28.33;23.33;14.33
12246;PMS7003;6186;52.022;4.692;2022-11-20T13:29:37;30.25;24.00;15.25
12246;PMS7003;6186;52.022;4.692;2022-11-20T13:34:38;26.75;23.00;14.00
12246;PMS7003;6186;52.022;4.692;2022-11-20T13:37:04;31.00;26.50;15.00
12246;PMS7003;6186;52.022;4.692;2022-11-20T13:39:31;30.25;24.75;14.75
12246;PMS7003;6186;52.022;4.692;2022-11-20T13:42:02;29.00;26.00;15.00
12246;PMS7003;6186;52.022;4.692;2022-11-20T13:44:54;33.00;30.25;16.75
12246;PMS7003;6186;52.022;4.692;2022-11-20T13:47:26;34.25;28.75;16.50
12246;PMS7003;6186;52.022;4.692;2022-11-20T13:49:53;30.00;26.50;15.00
12246;PMS7003;6186;52.022;4.692;2022-11-20T14:01:21;34.50;27.00;15.50
12246;PMS7003;6186;52.022;4.692;2022-11-20T14:03:49;32.00;27.00;15.25
12246;PMS7003;6186;52.022;4.692;2022-11-20T14:08:48;28.00;23.25;14.00
12246;PMS7003;6186;52.022;4.692;2022-11-20T14:16:29;34.00;29.50;16.25
12246;PMS7003;6186;52.022;4.692;2022-11-20T14:21:51;25.50;23.25;13.00
12246;PMS7003;6186;52.022;4.692;2022-11-20T14:24:19;37.25;27.50;17.00
12246;PMS7003;6186;52.022;4.692;2022-11-20T14:26:49;34.75;28.00;17.00
12246;PMS7003;6186;52.022;4.692;2022-11-20T14:29:17;32.00;28.50;16.75
12246;PMS7003;6186;52.022;4.692;2022-11-20T14:31:44;27.75;25.75;15.00
12246;PMS7003;6186;52.022;4.692;2022-11-20T14:34:15;30.00;24.00;15.00
12246;PMS7003;6186;52.022;4.692;2022-11-20T14:36:47;26.50;24.25;13.50
12246;PMS7003;6186;52.022;4.692;2022-11-20T14:39:21;25.50;23.75;13.50
12246;PMS7003;6186;52.022;4.692;2022-11-20T14:42:00;29.00;25.75;13.00
12246;PMS7003;6186;52.022;4.692;2022-11-20T14:44:31;27.00;26.25;15.00
12246;PMS7003;6186;52.022;4.692;2022-11-20T14:46:59;34.25;31.25;16.00
12246;PMS7003;6186;52.022;4.692;2022-11-20T14:49:26;34.50;26.75;15.00
12246;PMS7003;6186;52.022;4.692;2022-11-20T14:52:09;33.50;30.50;17.00
12246;PMS7003;6186;52.022;4.692;2022-11-20T14:54:44;34.50;28.50;17.00
12246;PMS7003;6186;52.022;4.692;2022-11-20T14:57:21;30.50;28.25;15.75
12246;PMS7003;6186;52.022;4.692;2022-11-20T15:00:02;30.75;25.00;15.50
12246;PMS7003;6186;52.022;4.692;2022-11-20T15:02:49;33.75;27.25;16.00
12246;PMS7003;6186;52.022;4.692;2022-11-20T15:05:16;28.50;24.00;13.00
12246;PMS7003;6186;52.022;4.692;2022-11-20T15:07:44;36.25;30.25;16.00
12246;PMS7003;6186;52.022;4.692;2022-11-20T15:12:53;33.50;27.50;16.00
12246;PMS7003;6186;52.022;4.692;2022-11-20T15:15:25;27.50;23.75;14.00
12246;PMS7003;6186;52.022;4.692;2022-11-20T15:17:56;31.50;28.00;16.00
12246;PMS7003;6186;52.022;4.692;2022-11-20T15:20:23;29.75;24.00;14.25
12246;PMS7003;6186;52.022;4.692;2022-11-20T15:22:52;27.75;26.25;16.00
12246;PMS7003;6186;52.022;4.692;2022-11-20T15:25:17;31.67;26.33;15.00
12246;PMS7003;6186;52.022;4.692;2022-11-20T15:27:43;28.00;25.67;13.00
12246;PMS7003;6186;52.022;4.692;2022-11-20T15:30:17;30.50;25.50;14.50
12246;PMS7003;6186;52.022;4.692;2022-11-20T15:32:44;32.00;31.00;16.75
12246;PMS7003;6186;52.022;4.692;2022-11-20T15:35:11;30.75;26.00;15.75
12246;PMS7003;6186;52.022;4.692;2022-11-20T15:37:37;28.50;27.25;16.00
12246;PMS7003;6186;52.022;4.692;2022-11-20T15:40:03;28.00;24.75;16.00
12246;PMS7003;6186;52.022;4.692;2022-11-20T15:42:30;32.75;28.50;14.75
12246;PMS7003;6186;52.022;4.692;2022-11-20T15:44:55;31.00;28.00;14.33
12246;PMS7003;6186;52.022;4.692;2022-11-20T15:47:22;30.33;26.00;17.00
12246;PMS7003;6186;52.022;4.692;2022-11-20T15:49:51;29.75;24.00;13.00
12246;PMS7003;6186;52.022;4.692;2022-11-20T15:52:17;33.67;27.00;16.00
12246;PMS7003;6186;52.022;4.692;2022-11-20T15:54:42;29.33;24.67;14.67
12246;PMS7003;6186;52.022;4.692;2022-11-20T15:57:07;32.67;22.67;13.33
12246;PMS7003;6186;52.022;4.692;2022-11-20T15:59:32;31.33;26.33;14.33
12246;PMS7003;6186;52.022;4.692;2022-11-20T16:01:59;28.25;24.50;14.00
12246;PMS7003;6186;52.022;4.692;2022-11-20T16:04:24;23.00;21.00;12.33
12246;PMS7003;6186;52.022;4.692;2022-11-20T16:06:50;29.33;25.67;13.67